Mocoreta, Argentina
Current Conditions -  °F | °C
As of 10:00 AM on Sunday 21 Dec 2014 (Local Time) from SUSO Reporting Station
Overcast Overcast  
Wind Chill: 20°   Ceiling: 1000
Heat Index: 20°   Visibility: 6mi
Dew Point: 19°   Wind: 9mph
Humidity: 94%   Direction: 230°SW
Pressure: 29.65"   Gusts: NA
Location:  30.63°S, 57.97°W
Report Text: SUSO 211300Z 23008KT 9999 OVC010 20/19 Q1004
Loading
Personal Weather Stations






























Interactive Weather Map New forecast layout! Learn more

10-Day Weather Forecast

Advertisements
Track Severe Weather on mobile